createdAt,value
2018-05-12T00:04:20.256Z,19.6
2018-05-12T00:14:19.429Z,19.4
2018-05-12T00:24:18.507Z,19.3
2018-05-12T00:34:17.593Z,19.4
2018-05-12T00:44:17.400Z,19.4
2018-05-12T00:54:16.344Z,19.5
2018-05-12T01:04:15.668Z,19.6
2018-05-12T01:14:14.651Z,19.5
2018-05-12T01:24:13.844Z,19.5
2018-05-12T01:34:12.846Z,19.4
2018-05-12T01:44:12.333Z,19.4
2018-05-12T01:54:11.839Z,19.3
2018-05-12T02:04:10.681Z,18.9
2018-05-12T02:14:09.994Z,19
2018-05-12T02:24:09.014Z,19.1
2018-05-12T02:34:08.128Z,19.3
2018-05-12T02:44:07.930Z,19.3
2018-05-12T02:54:06.823Z,19.3
2018-05-12T03:04:06.222Z,19.3
2018-05-12T03:14:05.277Z,19.3
2018-05-12T03:24:04.724Z,19.4
2018-05-12T03:34:03.740Z,19.4
2018-05-12T03:44:02.800Z,19.3
2018-05-12T03:54:02.369Z,19.4
2018-05-12T04:04:01.182Z,19.5
2018-05-12T04:14:00.294Z,19.6
2018-05-12T04:23:59.527Z,16.5
2018-05-12T04:33:59.217Z,15.2
2018-05-12T04:43:57.920Z,15
2018-05-12T04:53:57.184Z,15.9
2018-05-12T05:03:56.770Z,16.9
2018-05-12T05:13:55.695Z,19
2018-05-12T05:23:55.100Z,20.3
2018-05-12T05:33:54.024Z,19.9
2018-05-12T05:43:53.215Z,20.4
2018-05-12T05:53:52.936Z,20.6
2018-05-12T06:03:51.785Z,21.8
2018-05-12T06:13:50.929Z,22.8
2018-05-12T06:23:50.376Z,23.9
2018-05-12T06:33:49.578Z,24.4
2018-05-12T06:43:49.305Z,24.8
2018-05-12T06:53:48.776Z,25.6
2018-05-12T07:03:47.252Z,26.1
2018-05-12T07:13:46.151Z,27
2018-05-12T07:23:45.674Z,27.6
2018-05-12T07:33:44.558Z,27.5
2018-05-12T07:43:44.111Z,27.6
2018-05-12T07:53:43.146Z,28.1
2018-05-12T08:03:42.608Z,28.6
2018-05-12T08:13:41.529Z,29
2018-05-12T08:23:40.812Z,29.3
2018-05-12T08:33:40.010Z,29.6
2018-05-12T08:43:39.619Z,29.7
2018-05-12T08:53:38.379Z,29.9
